Time;durP1;ratioP1;P1;durP2;ratioP2;P2;SDS_P1;SDS_P2;PMS_P1;PMS_P2;Temp;Humidity;BMP_temperature;BMP_pressure;BME280_temperature;BME280_humidity;BME280_pressure;Samples;Min_cycle;Max_cycle;Signal;HPM_P1;HPM_P2
2021/12/30 00:01:36;;;;;;;;;52.50;42.00;;;;;6.18;100.00;99172.53;4991920;28;8848;-79
2021/12/30 00:04:06;;;;;;;;;65.50;50.50;;;;;6.34;99.35;99177.88;5007656;28;8824;-79
2021/12/30 00:06:39;;;;;;;;;62.75;49.00;;;;;6.63;97.89;99183.34;4975198;28;8856;-79
2021/12/30 00:09:10;;;;;;;;;63.75;51.75;;;;;6.94;95.64;99181.03;5007487;28;8925;-83
2021/12/30 00:11:39;;;;;;;;;60.25;48.75;;;;;6.97;93.72;99186.22;4991925;28;8967;-80
2021/12/30 00:14:09;;;;;;;;;74.50;52.75;;;;;6.30;97.92;99189.06;4987818;28;8929;-79
2021/12/30 00:16:39;;;;;;;;;59.50;48.75;;;;;6.02;100.00;99202.53;4971922;28;8881;-79
2021/12/30 00:19:08;;;;;;;;;78.50;59.25;;;;;5.94;100.00;99200.69;4971788;28;8854;-78
2021/12/30 00:21:36;;;;;;;;;68.75;54.00;;;;;5.97;100.00;99203.34;4994049;28;8870;-78
2021/12/30 00:24:06;;;;;;;;;70.00;56.50;;;;;5.89;100.00;99210.97;4994140;28;9640;-78
2021/12/30 00:26:35;;;;;;;;;70.50;56.00;;;;;5.84;100.00;99208.34;4992752;28;8976;-78
2021/12/30 00:29:04;;;;;;;;;72.50;52.75;;;;;5.70;100.00;99212.44;4991277;28;8852;-79
2021/12/30 00:31:35;;;;;;;;;64.00;50.50;;;;;5.75;100.00;99215.97;5034497;28;9659;-78
2021/12/30 00:34:04;;;;;;;;;67.75;52.50;;;;;5.79;100.00;99222.94;5051905;28;8844;-78
2021/12/30 00:36:32;;;;;;;;;50.50;45.25;;;;;5.58;100.00;99220.91;5000863;28;8848;-79
2021/12/30 00:39:01;;;;;;;;;66.00;53.25;;;;;5.50;100.00;99227.72;5069485;28;8843;-78
2021/12/30 00:41:30;;;;;;;;;62.25;50.25;;;;;5.58;100.00;99227.81;5051505;28;8867;-79
2021/12/30 00:43:58;;;;;;;;;60.75;46.75;;;;;5.59;100.00;99238.16;5051380;28;8883;-79
2021/12/30 00:46:27;;;;;;;;;56.75;45.00;;;;;5.59;100.00;99243.31;5006567;28;8857;-79
2021/12/30 00:48:58;;;;;;;;;62.75;51.00;;;;;5.63;100.00;99252.00;4974523;28;9679;-78
2021/12/30 00:51:27;;;;;;;;;61.50;50.50;;;;;5.58;100.00;99251.09;5006618;28;9670;-79
2021/12/30 00:53:56;;;;;;;;;59.00;46.25;;;;;5.57;100.00;99251.94;5003387;28;8854;-78
2021/12/30 00:56:24;;;;;;;;;61.50;47.25;;;;;5.64;100.00;99258.94;4937991;28;9526;-78
2021/12/30 00:58:53;;;;;;;;;57.50;45.25;;;;;5.56;100.00;99268.31;5003362;28;8858;-78
2021/12/30 01:01:22;;;;;;;;;56.25;43.25;;;;;5.61;100.00;99266.63;5003328;28;8866;-77
2021/12/30 01:03:52;;;;;;;;;52.75;45.00;;;;;5.54;100.00;99269.97;5003480;28;8849;-79
2021/12/30 01:06:22;;;;;;;;;57.25;49.25;;;;;5.50;100.00;99263.00;5003413;28;9605;-77
2021/12/30 01:08:51;;;;;;;;;45.00;41.00;;;;;5.35;100.00;99267.13;5003239;28;8827;-79
2021/12/30 01:11:22;;;;;;;;;53.50;44.75;;;;;5.35;100.00;99267.13;5019241;28;9778;-79
2021/12/30 01:14:00;;;;;;;;;49.25;43.00;;;;;5.36;100.00;99268.84;4970584;28;8861;-79
2021/12/30 01:16:31;;;;;;;;;60.50;44.00;;;;;5.28;100.00;99276.47;5003840;28;8964;-79
2021/12/30 01:19:15;;;;;;;;;50.25;41.75;;;;;5.36;100.00;99279.19;5048295;28;8860;-79
2021/12/30 01:21:45;;;;;;;;;61.00;45.75;;;;;5.35;100.00;99276.56;5012987;28;8873;-81
2021/12/30 01:24:14;;;;;;;;;67.75;49.75;;;;;5.37;100.00;99291.28;5032184;28;8862;-78
2021/12/30 01:26:43;;;;;;;;;57.75;48.75;;;;;5.44;100.00;99295.72;5034377;28;8856;-79
2021/12/30 01:29:12;;;;;;;;;57.25;48.00;;;;;5.33;100.00;99281.75;5050531;28;8871;-79
2021/12/30 01:31:41;;;;;;;;;70.75;50.25;;;;;5.23;100.00;99282.41;5049438;28;8882;-78
2021/12/30 01:34:21;;;;;;;;;65.50;51.00;;;;;5.18;100.00;99282.34;5067917;28;8856;-79
2021/12/30 01:36:52;;;;;;;;;56.25;46.50;;;;;5.27;100.00;99291.97;5034254;28;8848;-80
2021/12/30 01:39:22;;;;;;;;;55.75;46.50;;;;;5.23;100.00;99295.34;5005993;28;8896;-79
2021/12/30 01:41:52;;;;;;;;;48.25;40.50;;;;;5.15;100.00;99291.78;4973443;28;8874;-79
2021/12/30 01:44:22;;;;;;;;;60.75;48.75;;;;;5.21;100.00;99295.31;4995203;28;8859;-82
2021/12/30 01:46:51;;;;;;;;;64.25;51.00;;;;;5.15;100.00;99299.53;4982411;28;9703;-79
2021/12/30 01:49:21;;;;;;;;;58.00;48.75;;;;;5.05;100.00;99307.13;4998289;28;8880;-82
2021/12/30 01:51:54;;;;;;;;;59.25;47.75;;;;;5.06;100.00;99295.91;4980895;28;13273;-77
2021/12/30 01:54:24;;;;;;;;;64.50;49.50;;;;;5.13;100.00;99298.63;4970904;28;9004;-78
2021/12/30 01:56:54;;;;;;;;;59.50;49.25;;;;;4.90;100.00;99304.25;4977144;28;8875;-79
2021/12/30 01:59:24;;;;;;;;;62.25;49.75;;;;;4.97;100.00;99313.88;4994467;28;8931;-78
2021/12/30 02:01:56;;;;;;;;;64.25;51.50;;;;;4.91;100.00;99312.88;4963608;28;8899;-80
2021/12/30 02:04:34;;;;;;;;;60.75;48.00;;;;;5.02;100.00;99317.38;4991212;28;8876;-78
2021/12/30 02:07:05;;;;;;;;;67.00;50.00;;;;;4.98;100.00;99315.59;4966551;28;9031;-79
2021/12/30 02:09:34;;;;;;;;;64.50;49.00;;;;;5.01;100.00;99323.41;4950636;28;9771;-79
2021/12/30 02:12:04;;;;;;;;;60.00;50.00;;;;;5.27;100.00;99315.22;4950572;28;8898;-79
2021/12/30 02:14:34;;;;;;;;;66.25;51.75;;;;;5.43;100.00;99321.53;4966703;28;9758;-78
2021/12/30 02:17:04;;;;;;;;;54.00;45.50;;;;;5.40;100.00;99329.25;4976446;28;8878;-77
2021/12/30 02:19:34;;;;;;;;;62.75;50.25;;;;;5.59;100.00;99330.41;4969959;28;8869;-78
2021/12/30 02:22:05;;;;;;;;;60.00;45.00;;;;;5.51;100.00;99317.34;4972863;28;8874;-78
2021/12/30 02:24:34;;;;;;;;;54.00;46.25;;;;;5.34;100.00;99326.56;5025265;28;9582;-79
2021/12/30 02:27:04;;;;;;;;;57.75;45.25;;;;;5.67;100.00;99328.81;5009256;28;8900;-78
2021/12/30 02:29:34;;;;;;;;;56.50;45.75;;;;;5.96;100.00;99325.84;5025228;28;8848;-78
2021/12/30 02:32:02;;;;;;;;;63.00;47.00;;;;;5.87;99.46;99331.72;5025127;28;9661;-79
2021/12/30 02:34:32;;;;;;;;;52.00;41.50;;;;;6.10;98.31;99332.06;5025086;28;8967;-79
2021/12/30 02:37:00;;;;;;;;;55.75;46.00;;;;;6.15;95.46;99333.00;5025436;28;9633;-78
2021/12/30 02:39:31;;;;;;;;;61.50;52.00;;;;;5.76;97.74;99331.53;5049654;28;8863;-79
2021/12/30 02:42:00;;;;;;;;;59.50;47.25;;;;;5.73;98.43;99330.63;5066253;28;8879;-79
2021/12/30 02:44:29;;;;;;;;;60.75;49.25;;;;;5.74;97.69;99330.66;5032999;28;8851;-79
2021/12/30 02:46:57;;;;;;;;;63.00;49.25;;;;;5.59;99.04;99330.41;5066333;28;8921;-78
2021/12/30 02:49:26;;;;;;;;;62.75;50.75;;;;;5.47;100.00;99339.72;5064710;28;8844;-78
2021/12/30 02:51:55;;;;;;;;;68.25;51.00;;;;;5.19;100.00;99337.50;5015171;28;8981;-77
2021/12/30 02:54:23;;;;;;;;;64.75;49.75;;;;;5.23;100.00;99342.75;5067523;28;9006;-78
2021/12/30 02:56:53;;;;;;;;;61.50;49.50;;;;;5.47;100.00;99347.47;5035282;28;8820;-78
2021/12/30 02:59:22;;;;;;;;;67.50;50.00;;;;;5.51;100.00;99339.78;5035058;28;8940;-78
2021/12/30 03:01:51;;;;;;;;;60.00;50.50;;;;;5.52;99.62;99350.16;5002682;28;8883;-79
2021/12/30 03:04:21;;;;;;;;;58.75;45.75;;;;;5.78;98.83;99355.72;5001986;28;8855;-79
2021/12/30 03:06:50;;;;;;;;;56.25;46.75;;;;;5.75;96.72;99350.50;5070507;28;8854;-79
2021/12/30 03:09:19;;;;;;;;;56.75;48.25;;;;;5.90;96.71;99351.56;5071748;28;8958;-80
2021/12/30 03:11:48;;;;;;;;;67.00;50.50;;;;;5.83;96.13;99350.63;5071655;28;8869;-79
2021/12/30 03:14:18;;;;;;;;;59.00;49.00;;;;;5.40;99.09;99360.25;5054618;28;8857;-78
2021/12/30 03:16:47;;;;;;;;;50.25;42.00;;;;;5.16;100.00;99363.28;5054957;28;8838;-78
2021/12/30 03:19:16;;;;;;;;;58.75;46.00;;;;;5.19;100.00;99365.94;5071594;28;8838;-78
2021/12/30 03:21:44;;;;;;;;;61.25;50.75;;;;;5.04;100.00;99372.56;5009201;28;8944;-79
2021/12/30 03:24:13;;;;;;;;;33.25;25.00;;;;;4.98;100.00;99380.19;5008065;28;8984;-79
2021/12/30 03:26:42;;;;;;;;;70.00;49.25;;;;;4.87;100.00;99376.53;4992014;28;8890;-78
2021/12/30 03:29:11;;;;;;;;;65.25;51.50;;;;;4.85;100.00;99383.38;4991772;28;8842;-79
2021/12/30 03:31:41;;;;;;;;;58.25;48.00;;;;;5.00;100.00;99381.09;5008256;28;8854;-78
2021/12/30 03:34:09;;;;;;;;;60.00;49.50;;;;;5.03;100.00;99381.16;4992129;28;8877;-77
2021/12/30 03:36:38;;;;;;;;;62.75;47.00;;;;;5.08;100.00;99389.00;4992119;28;9714;-78
2021/12/30 03:39:08;;;;;;;;;66.00;53.25;;;;;4.98;100.00;99400.88;5008001;28;8901;-78
2021/12/30 03:41:37;;;;;;;;;59.75;47.75;;;;;5.03;100.00;99404.41;5008127;28;8940;-78
2021/12/30 03:44:06;;;;;;;;;68.50;51.50;;;;;4.92;100.00;99407.63;4975842;28;8862;-79
2021/12/30 03:46:35;;;;;;;;;65.00;49.25;;;;;4.84;100.00;99413.53;5007869;28;8873;-77
2021/12/30 03:49:06;;;;;;;;;39.75;34.25;;;;;4.91;100.00;99411.06;4959078;28;8884;-78
2021/12/30 03:51:39;;;;;;;;;71.75;50.75;;;;;4.86;100.00;99413.56;4975465;28;8882;-80
2021/12/30 03:54:08;;;;;;;;;60.25;48.25;;;;;4.86;100.00;99427.34;4991702;28;8889;-79
2021/12/30 03:56:37;;;;;;;;;11.25;0.00;;;;;4.55;100.00;99427.53;4959726;28;8866;-78
2021/12/30 03:59:06;;;;;;;;;70.00;54.75;;;;;4.52;100.00;99430.03;5010893;28;8860;-77
2021/12/30 04:01:36;;;;;;;;;63.75;50.50;;;;;4.43;100.00;99439.34;5027506;28;8864;-79
2021/12/30 04:04:06;;;;;;;;;71.25;51.25;;;;;4.37;100.00;99436.63;5011044;28;8848;-78
2021/12/30 04:06:35;;;;;;;;;67.00;52.75;;;;;4.34;100.00;99440.84;4994556;28;8888;-79
2021/12/30 04:09:06;;;;;;;;;51.75;43.50;;;;;4.43;100.00;99451.38;5019962;28;8900;-79
2021/12/30 04:11:36;;;;;;;;;54.75;44.75;;;;;4.47;100.00;99451.47;4998329;28;8873;-78
2021/12/30 04:14:05;;;;;;;;;64.00;50.25;;;;;4.62;100.00;99447.50;4994789;28;8860;-78
2021/12/30 04:16:34;;;;;;;;;63.25;53.50;;;;;4.64;100.00;99457.00;5027265;28;8864;-77
2021/12/30 04:19:04;;;;;;;;;66.25;54.25;;;;;4.49;100.00;99452.38;4987700;28;8956;-77
2021/12/30 04:21:34;;;;;;;;;57.25;48.75;;;;;4.45;100.00;99457.44;4955911;28;8877;-78
2021/12/30 04:24:03;;;;;;;;;71.00;57.00;;;;;4.44;100.00;99469.50;4988084;28;8896;-79
2021/12/30 04:26:32;;;;;;;;;73.25;58.00;;;;;4.34;100.00;99471.81;4993811;28;8842;-79
2021/12/30 04:29:01;;;;;;;;;73.25;58.25;;;;;4.40;100.00;99471.94;5010666;28;9634;-78
2021/12/30 04:31:29;;;;;;;;;74.75;55.75;;;;;4.38;100.00;99474.47;5026934;28;8856;-78
2021/12/30 04:33:58;;;;;;;;;77.75;55.00;;;;;4.58;100.00;99472.38;4978489;28;8892;-79
2021/12/30 04:36:27;;;;;;;;;63.00;50.25;;;;;4.55;100.00;99472.28;4994439;28;8954;-77
2021/12/30 04:38:57;;;;;;;;;70.00;54.50;;;;;4.65;100.00;99468.19;4994090;28;8863;-79
2021/12/30 04:41:26;;;;;;;;;72.75;55.50;;;;;4.49;100.00;99474.75;5010697;28;8840;-78
2021/12/30 04:43:55;;;;;;;;;66.75;50.75;;;;;4.56;100.00;99475.75;5026181;28;8852;-78
2021/12/30 04:46:23;;;;;;;;;65.75;51.50;;;;;4.80;100.00;99467.66;4986505;28;8897;-77
2021/12/30 04:48:52;;;;;;;;;72.25;55.00;;;;;4.73;100.00;99465.81;4990824;28;8847;-78
2021/12/30 04:51:21;;;;;;;;;67.25;51.50;;;;;4.66;100.00;99473.41;4974400;28;8846;-79
2021/12/30 04:53:52;;;;;;;;;67.75;51.00;;;;;4.90;100.00;99479.94;5006732;28;8902;-78
2021/12/30 04:56:22;;;;;;;;;66.50;49.75;;;;;5.02;100.00;99481.91;5018547;28;8875;-79
2021/12/30 04:58:51;;;;;;;;;59.50;47.25;;;;;5.17;100.00;99483.94;5060126;28;8931;-80
2021/12/30 05:01:20;;;;;;;;;72.00;55.75;;;;;4.94;100.00;99496.41;4994846;28;8866;-78
2021/12/30 05:03:50;;;;;;;;;64.25;51.25;;;;;4.78;100.00;99488.31;5088663;28;8854;-80
2021/12/30 05:06:19;;;;;;;;;57.25;47.50;;;;;4.74;100.00;99499.41;5070522;28;8830;-79
2021/12/30 05:08:47;;;;;;;;;59.75;48.25;;;;;4.93;100.00;99495.50;5061438;28;8862;-79
2021/12/30 05:11:16;;;;;;;;;63.50;48.50;;;;;5.08;100.00;99500.13;5037140;28;8839;-78
2021/12/30 05:13:47;;;;;;;;;68.75;52.50;;;;;5.07;100.00;99496.66;5019497;28;8894;-80
2021/12/30 05:16:16;;;;;;;;;60.75;49.50;;;;;4.97;100.00;99507.66;5010244;28;8868;-78
2021/12/30 05:18:45;;;;;;;;;63.25;50.25;;;;;4.81;100.00;99519.38;4994234;28;8875;-80
2021/12/30 05:21:14;;;;;;;;;76.50;54.50;;;;;4.70;100.00;99520.84;5010337;28;8961;-79
2021/12/30 05:23:42;;;;;;;;;74.75;56.50;;;;;4.71;100.00;99517.44;5010162;28;8872;-79
2021/12/30 05:26:11;;;;;;;;;65.25;48.00;;;;;4.68;100.00;99527.69;5010422;28;8852;-78
2021/12/30 05:28:40;;;;;;;;;86.25;55.75;;;;;4.65;100.00;99536.25;4994010;28;8852;-78
2021/12/30 05:31:10;;;;;;;;;66.50;48.50;;;;;4.60;100.00;99532.66;5026764;28;8984;-78
2021/12/30 05:33:39;;;;;;;;;76.25;52.25;;;;;4.68;100.00;99554.38;5025686;28;8880;-78
2021/12/30 05:36:08;;;;;;;;;75.25;55.25;;;;;4.77;100.00;99560.59;5010210;28;8864;-78
2021/12/30 05:38:36;;;;;;;;;67.50;53.25;;;;;4.53;100.00;99572.09;5026006;28;8844;-78
2021/12/30 05:41:05;;;;;;;;;76.50;59.50;;;;;4.53;100.00;99574.69;5009704;28;8856;-78
2021/12/30 05:43:34;;;;;;;;;69.00;54.50;;;;;4.44;100.00;99574.44;5065406;28;8871;-78
2021/12/30 05:46:03;;;;;;;;;64.00;51.50;;;;;4.33;100.00;99588.78;5050286;28;8986;-80
2021/12/30 05:48:33;;;;;;;;;59.75;49.00;;;;;4.40;100.00;99598.44;5050160;28;8974;-77
2021/12/30 05:51:02;;;;;;;;;76.00;56.00;;;;;4.41;100.00;99589.88;5049995;28;8840;-81
2021/12/30 05:53:31;;;;;;;;;70.50;56.25;;;;;4.41;100.00;99602.78;5049773;28;8852;-80
2021/12/30 05:56:00;;;;;;;;;77.00;60.25;;;;;4.34;100.00;99606.91;5033048;28;8979;-78
2021/12/30 05:58:29;;;;;;;;;44.75;39.00;;;;;4.39;100.00;99609.63;5033709;28;8840;-80
2021/12/30 06:00:58;;;;;;;;;66.75;46.25;;;;;4.52;100.00;99622.00;5066644;28;8898;-79
2021/12/30 06:03:27;;;;;;;;;68.00;55.00;;;;;4.44;100.00;99618.34;5049746;28;8860;-79
2021/12/30 06:05:57;;;;;;;;;68.75;55.00;;;;;4.45;100.00;99626.13;5033652;28;8844;-82
2021/12/30 06:08:26;;;;;;;;;69.50;50.50;;;;;4.48;100.00;99630.53;5050338;28;8856;-78
2021/12/30 06:10:55;;;;;;;;;68.25;52.75;;;;;4.47;100.00;99628.75;5033383;28;8851;-79
2021/12/30 06:13:24;;;;;;;;;77.50;55.00;;;;;4.44;100.00;99633.81;4988877;28;8885;-79
2021/12/30 06:15:53;;;;;;;;;79.00;60.75;;;;;4.54;100.00;99645.25;4972964;28;8961;-78
2021/12/30 06:18:21;;;;;;;;;77.00;60.75;;;;;4.37;100.00;99635.41;4989861;28;8847;-79
2021/12/30 06:20:50;;;;;;;;;75.00;54.75;;;;;4.38;100.00;99646.59;4972802;28;8870;-79
2021/12/30 06:23:20;;;;;;;;;72.75;54.75;;;;;4.40;100.00;99653.53;4972514;28;8909;-80
2021/12/30 06:25:49;;;;;;;;;89.75;62.75;;;;;4.36;100.00;99646.53;4988838;28;8881;-80
2021/12/30 06:28:18;;;;;;;;;84.50;63.50;;;;;4.54;100.00;99653.91;4974273;28;8834;-80
2021/12/30 06:30:47;;;;;;;;;85.75;65.00;;;;;4.84;100.00;99647.75;4961065;28;8858;-79
2021/12/30 06:33:15;;;;;;;;;76.25;59.25;;;;;4.87;100.00;99656.44;4993231;28;8875;-80
2021/12/30 06:35:44;;;;;;;;;69.75;51.75;;;;;4.70;100.00;99670.66;4976867;28;8872;-77
2021/12/30 06:38:13;;;;;;;;;69.00;58.25;;;;;4.56;100.00;99672.03;4976675;28;8940;-79
2021/12/30 06:40:43;;;;;;;;;80.00;60.75;;;;;4.60;100.00;99671.25;4992908;28;8846;-78
2021/12/30 06:43:12;;;;;;;;;77.00;58.50;;;;;4.54;100.00;99678.81;5009302;28;8974;-78
2021/12/30 06:45:44;;;;;;;;;78.25;62.25;;;;;4.35;100.00;99696.44;5033681;28;9645;-79
2021/12/30 06:48:14;;;;;;;;;78.50;57.00;;;;;4.35;100.00;99700.72;5021099;28;8855;-79
2021/12/30 06:50:51;;;;;;;;;74.50;56.25;;;;;4.45;100.00;99702.72;5053350;28;8847;-79
2021/12/30 06:53:20;;;;;;;;;78.50;59.00;;;;;4.36;100.00;99707.63;5056243;28;8970;-77
2021/12/30 06:55:52;;;;;;;;;82.75;61.00;;;;;4.28;100.00;99715.19;5006402;28;8872;-77
2021/12/30 06:58:21;;;;;;;;;72.50;47.25;;;;;4.34;100.00;99717.91;5056342;28;8838;-78
2021/12/30 07:00:51;;;;;;;;;71.50;56.50;;;;;4.44;100.00;99717.34;5069806;28;8850;-77
2021/12/30 07:03:20;;;;;;;;;57.50;48.25;;;;;4.74;100.00;99711.22;5090860;28;8865;-78
2021/12/30 07:05:51;;;;;;;;;63.75;53.25;;;;;4.97;100.00;99726.41;5056894;28;8906;-81
2021/12/30 07:08:20;;;;;;;;;54.75;46.25;;;;;5.09;100.00;99729.31;5056651;28;8860;-78
2021/12/30 07:10:51;;;;;;;;;60.25;44.00;;;;;4.78;100.00;99736.31;5072793;28;8858;-79
2021/12/30 07:13:20;;;;;;;;;66.75;52.00;;;;;4.45;100.00;99738.88;5056178;28;8834;-78
2021/12/30 07:15:48;;;;;;;;;62.50;44.50;;;;;4.29;100.00;99746.19;5072885;28;8898;-79
2021/12/30 07:18:17;;;;;;;;;60.25;48.50;;;;;4.24;100.00;99757.22;5038678;28;8930;-77
2021/12/30 07:20:46;;;;;;;;;43.25;37.75;;;;;4.48;100.00;99760.50;5056267;28;8855;-78
2021/12/30 07:23:14;;;;;;;;;53.00;46.25;;;;;4.87;100.00;99771.81;5073044;28;8850;-78
2021/12/30 07:25:43;;;;;;;;;63.50;48.75;;;;;5.06;100.00;99765.41;5091111;28;9587;-78
2021/12/30 07:28:13;;;;;;;;;43.00;41.00;;;;;4.74;100.00;99775.78;5072874;28;8862;-79
2021/12/30 07:30:43;;;;;;;;;54.00;42.25;;;;;4.48;100.00;99775.97;5059983;28;9734;-79
2021/12/30 07:33:12;;;;;;;;;40.75;31.00;;;;;4.42;100.00;99772.34;5056433;28;8862;-79
2021/12/30 07:35:40;;;;;;;;;61.50;46.00;;;;;4.31;100.00;99772.06;4994497;28;8860;-80
2021/12/30 07:38:09;;;;;;;;;52.00;45.00;;;;;4.47;100.00;99783.69;5010871;28;8988;-78
2021/12/30 07:40:39;;;;;;;;;48.50;42.75;;;;;4.32;100.00;99768.63;5010033;28;8945;-80
2021/12/30 07:43:07;;;;;;;;;47.50;42.00;;;;;4.14;100.00;99786.16;4994075;28;8853;-79
2021/12/30 07:45:37;;;;;;;;;36.00;31.75;;;;;4.07;100.00;99783.41;4994647;28;8860;-78
2021/12/30 07:48:07;;;;;;;;;47.25;40.75;;;;;4.27;100.00;99784.00;4994090;28;8859;-79
2021/12/30 07:50:36;;;;;;;;;61.00;45.25;;;;;4.35;100.00;99778.16;4976051;28;8868;-78
2021/12/30 07:53:04;;;;;;;;;44.25;34.25;;;;;4.62;100.00;99778.06;4995401;28;8848;-79
2021/12/30 07:55:33;;;;;;;;;40.00;37.00;;;;;4.95;100.00;99783.22;4961490;28;8879;-79
2021/12/30 07:58:02;;;;;;;;;32.50;27.75;;;;;4.79;100.00;99789.72;4994211;28;8906;-77
2021/12/30 08:00:31;;;;;;;;;53.00;43.75;;;;;4.99;100.00;99802.28;5010694;28;8887;-79
2021/12/30 08:03:01;;;;;;;;;36.50;28.75;;;;;5.21;97.90;99802.00;4994717;28;8848;-78
2021/12/30 08:05:30;;;;;;;;;36.50;31.75;;;;;5.43;96.27;99805.13;4994212;28;8887;-78
2021/12/30 08:07:59;;;;;;;;;44.50;37.75;;;;;5.09;97.40;99812.03;5063557;28;8851;-79
2021/12/30 08:10:29;;;;;;;;;36.50;32.50;;;;;5.13;97.78;99808.69;5053991;28;8880;-79
2021/12/30 08:12:58;;;;;;;;;42.75;40.25;;;;;5.42;95.65;99814.56;5006186;28;8850;-80
2021/12/30 08:15:27;;;;;;;;;34.75;33.25;;;;;5.44;94.01;99825.84;5052450;28;8876;-80
2021/12/30 08:17:55;;;;;;;;;37.75;29.75;;;;;5.70;93.64;99828.19;5077251;28;8872;-78
2021/12/30 08:20:27;;;;;;;;;41.00;32.25;;;;;6.03;92.55;99824.63;5052509;28;8925;-80
2021/12/30 08:22:56;;;;;;;;;39.00;34.25;;;;;6.25;89.92;99832.03;5055484;28;8880;-80
2021/12/30 08:25:25;;;;;;;;;43.50;39.75;;;;;5.81;90.05;99843.97;5048522;28;9012;-79
2021/12/30 08:27:55;;;;;;;;;32.20;25.20;;;;;5.38;92.16;99850.69;5050805;28;8953;-78
2021/12/30 08:30:24;;;;;;;;;31.75;29.75;;;;;5.59;91.43;99856.38;5077340;28;8872;-80
2021/12/30 08:32:54;;;;;;;;;41.50;32.50;;;;;5.87;89.40;99859.63;5022045;28;9562;-80
2021/12/30 08:35:25;;;;;;;;;34.20;25.40;;;;;5.99;89.37;99870.31;5027186;28;8847;-78
2021/12/30 08:37:55;;;;;;;;;47.25;33.75;;;;;6.22;88.74;99862.19;4996437;28;8977;-77
2021/12/30 08:40:24;;;;;;;;;44.25;41.50;;;;;5.97;88.67;99864.22;4993694;28;8860;-80
2021/12/30 08:42:53;;;;;;;;;46.50;35.00;;;;;5.61;91.41;99865.06;5013481;28;8854;-79
2021/12/30 08:45:22;;;;;;;;;37.20;34.00;;;;;5.91;91.20;99873.50;5013512;28;8975;-78
2021/12/30 08:47:53;;;;;;;;;36.00;30.60;;;;;6.16;90.12;99883.66;5029055;28;8850;-78
2021/12/30 08:50:22;;;;;;;;;36.40;30.60;;;;;6.12;87.72;99886.97;5013653;28;8952;-80
2021/12/30 08:52:53;;;;;;;;;38.40;31.80;;;;;6.16;88.45;99895.69;5011067;28;8857;-78
2021/12/30 08:55:21;;;;;;;;;37.00;34.40;;;;;5.91;87.85;99900.25;4994210;28;8850;-79
2021/12/30 08:57:51;;;;;;;;;16.00;13.00;;;;;5.47;90.88;99905.22;5029877;28;8905;-79
2021/12/30 09:00:23;;;;;;;;;26.75;22.25;;;;;4.82;95.67;99903.50;4951499;28;8884;-80
2021/12/30 09:02:55;;;;;;;;;28.80;25.20;;;;;4.58;98.48;99906.22;4984856;28;8870;-79
2021/12/30 09:05:25;;;;;;;;;35.00;29.60;;;;;4.54;99.56;99908.66;5013500;28;8858;-79
2021/12/30 09:07:55;;;;;;;;;38.75;35.75;;;;;5.00;99.22;99904.81;5011792;28;8861;-79
2021/12/30 09:10:24;;;;;;;;;38.40;28.40;;;;;5.21;95.30;99901.94;5012593;28;8896;-80
2021/12/30 09:12:55;;;;;;;;;37.60;32.20;;;;;5.52;93.58;99890.69;5012644;28;8862;-79
2021/12/30 09:15:25;;;;;;;;;33.00;25.80;;;;;5.86;92.01;99896.72;4989313;28;8878;-78
2021/12/30 09:17:54;;;;;;;;;37.60;37.40;;;;;5.18;93.00;99907.03;5005574;28;9036;-80
2021/12/30 09:20:24;;;;;;;;;36.20;31.60;;;;;4.75;97.08;99905.84;4989939;28;8874;-77
2021/12/30 09:22:57;;;;;;;;;33.20;31.00;;;;;4.74;95.75;99917.00;4989804;28;8951;-80
2021/12/30 09:25:26;;;;;;;;;35.60;28.60;;;;;4.43;97.64;99918.69;5005424;28;8866;-80
2021/12/30 09:27:56;;;;;;;;;38.00;34.25;;;;;4.55;97.61;99918.19;4997387;28;8864;-79
2021/12/30 09:30:27;;;;;;;;;35.50;29.00;;;;;4.84;96.22;99922.50;4989311;28;8854;-78
2021/12/30 09:33:00;;;;;;;;;31.75;29.25;;;;;5.21;94.71;99922.63;4989261;28;8858;-78
2021/12/30 09:35:29;;;;;;;;;42.00;31.50;;;;;5.50;91.07;99918.25;4989078;28;8912;-80
2021/12/30 09:38:00;;;;;;;;;40.00;37.00;;;;;5.19;92.12;99922.59;5005945;28;8870;-77
2021/12/30 09:40:29;;;;;;;;;32.50;31.50;;;;;4.83;94.87;99927.59;5044512;28;8896;-79
2021/12/30 09:43:04;;;;;;;;;48.00;43.50;;;;;4.61;97.12;99924.41;5026044;28;9043;-80
2021/12/30 09:45:36;;;;;;;;;39.50;31.75;;;;;4.42;97.33;99911.75;5027195;28;9576;-79
2021/12/30 09:48:07;;;;;;;;;29.00;27.75;;;;;4.51;98.35;99916.34;5066543;28;8879;-78
2021/12/30 09:50:40;;;;;;;;;50.00;42.75;;;;;4.32;99.06;99913.19;5033649;28;8893;-79
2021/12/30 09:53:10;;;;;;;;;34.50;29.00;;;;;4.61;97.97;99910.59;5049443;28;8856;-79
2021/12/30 09:55:39;;;;;;;;;36.75;35.25;;;;;5.12;96.83;99917.19;5067767;28;8868;-78
2021/12/30 09:58:09;;;;;;;;;49.00;37.00;;;;;5.33;93.14;99914.31;5060335;28;8919;-78
2021/12/30 10:00:38;;;;;;;;;38.00;34.75;;;;;5.34;91.03;99908.31;5032591;28;8840;-78
2021/12/30 10:03:07;;;;;;;;;37.25;32.50;;;;;5.47;90.81;99905.22;5053754;28;8980;-79
2021/12/30 10:05:38;;;;;;;;;43.25;39.75;;;;;5.50;90.39;99918.25;5026034;28;8863;-80
2021/12/30 10:08:18;;;;;;;;;35.25;32.00;;;;;5.74;88.68;99906.75;5061628;28;8920;-80
2021/12/30 10:10:48;;;;;;;;;40.25;33.50;;;;;6.15;88.63;99910.38;5056471;28;8985;-78
2021/12/30 10:13:23;;;;;;;;;36.50;33.00;;;;;6.47;86.53;99901.59;5085415;28;8833;-79
2021/12/30 10:15:54;;;;;;;;;25.25;22.00;;;;;6.62;84.48;99891.53;5071915;28;8887;-78
2021/12/30 10:18:24;;;;;;;;;44.00;38.75;;;;;6.35;84.08;99902.16;5042029;28;8941;-79
2021/12/30 10:20:54;;;;;;;;;37.25;33.25;;;;;6.70;85.36;99909.84;5062672;28;8846;-78
2021/12/30 10:23:25;;;;;;;;;45.50;41.50;;;;;6.93;82.78;99912.88;5067637;28;8833;-78
2021/12/30 10:25:56;;;;;;;;;38.50;37.50;;;;;6.98;83.03;99919.06;5058910;28;9652;-80
2021/12/30 10:28:32;;;;;;;;;34.00;27.00;;;;;7.31;82.94;99905.84;5075836;28;8945;-79
2021/12/30 10:31:15;;;;;;;;;28.75;25.75;;;;;7.65;81.65;99908.16;5055652;28;8921;-81
2021/12/30 10:33:49;;;;;;;;;25.20;22.20;;;;;7.62;77.87;99901.22;5038710;28;8865;-79
2021/12/30 10:36:19;;;;;;;;;27.60;23.80;;;;;7.60;77.25;99906.38;5039623;28;8822;-80
2021/12/30 10:38:50;;;;;;;;;29.40;25.60;;;;;7.73;76.27;99906.56;5062874;28;8852;-77
2021/12/30 10:41:23;;;;;;;;;31.20;26.60;;;;;7.94;77.24;99917.31;5049319;28;8854;-80
2021/12/30 10:43:57;;;;;;;;;28.00;24.60;;;;;7.21;77.25;99922.94;5056622;28;8858;-77
2021/12/30 10:46:27;;;;;;;;;31.40;28.60;;;;;7.58;78.61;99914.97;5068704;28;9651;-77
2021/12/30 10:48:59;;;;;;;;;30.00;26.20;;;;;7.07;77.61;99923.53;5056098;28;8874;-79
2021/12/30 10:51:35;;;;;;;;;25.40;23.00;;;;;7.32;77.83;99907.59;5072703;28;8882;-76
2021/12/30 10:54:17;;;;;;;;;24.00;18.20;;;;;7.58;76.73;99899.38;5085619;28;8955;-76
2021/12/30 10:56:47;;;;;;;;;28.60;21.60;;;;;7.90;76.83;99893.84;5059115;28;8980;-77
2021/12/30 10:59:19;;;;;;;;;24.40;23.00;;;;;7.87;73.74;99893.84;5072665;28;8838;-78
2021/12/30 11:01:53;;;;;;;;;21.20;19.20;;;;;6.95;76.37;99896.50;5090242;28;9617;-77
2021/12/30 11:04:31;;;;;;;;;21.20;19.60;;;;;6.43;78.88;99905.81;5066992;28;8838;-78
2021/12/30 11:07:00;;;;;;;;;23.40;17.80;;;;;6.39;79.80;99903.97;5068838;28;8854;-78
2021/12/30 11:09:30;;;;;;;;;27.20;24.80;;;;;5.99;83.20;99903.97;5070170;28;8881;-78
2021/12/30 11:12:01;;;;;;;;;28.80;23.60;;;;;5.97;83.47;99910.81;5050652;28;8836;-79
2021/12/30 11:14:31;;;;;;;;;31.80;27.60;;;;;6.28;82.92;99911.53;5027944;28;8894;-78
2021/12/30 11:17:12;;;;;;;;;27.60;23.20;;;;;6.68;82.12;99912.38;5055532;28;8874;-78
2021/12/30 11:19:52;;;;;;;;;27.40;26.60;;;;;6.04;82.59;99912.69;5078337;28;8860;-77
2021/12/30 11:22:24;;;;;;;;;31.20;25.40;;;;;6.21;82.14;99918.25;5078106;28;8898;-80
2021/12/30 11:24:56;;;;;;;;;17.40;16.60;;;;;6.52;79.34;99916.38;5037315;28;8863;-78
2021/12/30 11:27:28;;;;;;;;;18.00;16.80;;;;;6.66;77.23;99923.56;5040749;28;9593;-79
2021/12/30 11:29:58;;;;;;;;;14.60;13.60;;;;;6.85;76.80;99922.25;5070630;28;8856;-78
2021/12/30 11:32:29;;;;;;;;;21.40;21.40;;;;;7.10;77.07;99928.78;5058119;28;8842;-79
2021/12/30 11:34:59;;;;;;;;;24.00;19.60;;;;;7.44;76.47;99935.47;5071841;28;8854;-77
2021/12/30 11:37:28;;;;;;;;;20.40;19.00;;;;;6.86;75.95;99939.53;5063169;28;8846;-79
2021/12/30 11:40:00;;;;;;;;;21.40;18.40;;;;;6.96;75.93;99937.16;5040903;28;8830;-78
2021/12/30 11:42:37;;;;;;;;;26.00;23.60;;;;;6.67;77.53;99940.84;5050262;28;8848;-78